Time;durP1;ratioP1;P1;durP2;ratioP2;P2;SDS_P1;SDS_P2;PMS_P1;PMS_P2;Temp;Humidity;BMP_temperature;BMP_pressure;BME280_temperature;BME280_humidity;BME280_pressure;Samples;Min_cycle;Max_cycle;Signal;HPM_P1;HPM_P2
2022/08/02 00:00:57;;;;;;;;;;;19.30;99.90;;;;;;5087713;28;19919;-76
2022/08/02 00:03:22;;;;;;;;;;;19.30;99.90;;;;;;5087778;28;19931;-76
2022/08/02 00:05:48;;;;;;;;;;;19.30;99.90;;;;;;5087452;28;19912;-76
2022/08/02 00:08:14;;;;;;;;;;;19.30;99.90;;;;;;5087834;28;20011;-76
2022/08/02 00:10:39;;;;;;;;;;;19.30;99.90;;;;;;5087727;28;19908;-75
2022/08/02 00:13:05;;;;;;;;;;;19.30;99.90;;;;;;5087646;28;19931;-76
2022/08/02 00:15:33;;;;;;;;;;;19.20;99.90;;;;;;5087424;28;19973;-75
2022/08/02 00:17:59;;;;;;;;;;;19.20;99.90;;;;;;5087545;28;19908;-76
2022/08/02 00:20:24;;;;;;;;;;;19.20;99.90;;;;;;5087778;28;19913;-76
2022/08/02 00:22:50;;;;;;;;;;;19.20;99.90;;;;;;5087635;28;19919;-76
2022/08/02 00:25:16;;;;;;;;;;;19.20;99.90;;;;;;5088848;28;20364;-76
2022/08/02 00:27:41;;;;;;;;;;;19.20;99.90;;;;;;5091427;28;19909;-74
2022/08/02 00:30:07;;;;;;;;;;;19.20;99.90;;;;;;5091933;28;20323;-76
2022/08/02 00:32:33;;;;;;;;;;;19.20;99.90;;;;;;5091439;28;20372;-76
2022/08/02 00:34:58;;;;;;;;;;;19.10;99.90;;;;;;5091611;28;19908;-76
2022/08/02 00:37:24;;;;;;;;;;;19.10;99.90;;;;;;5091256;28;19908;-76
2022/08/02 00:39:50;;;;;;;;;;;19.10;99.90;;;;;;5091401;28;20337;-75
2022/08/02 00:42:15;;;;;;;;;;;19.00;99.90;;;;;;5091302;28;19954;-76
2022/08/02 00:44:41;;;;;;;;;;;19.00;99.90;;;;;;5091387;28;19959;-76
2022/08/02 00:47:07;;;;;;;;;;;19.00;99.90;;;;;;5091355;28;19908;-76
2022/08/02 00:49:32;;;;;;;;;;;19.00;99.90;;;;;;5091265;28;20003;-76
2022/08/02 00:51:59;;;;;;;;;;;19.00;99.90;;;;;;5091223;28;20260;-76
2022/08/02 00:54:24;;;;;;;;;;;19.00;99.90;;;;;;5091258;28;19908;-75
2022/08/02 00:56:50;;;;;;;;;;;19.00;99.90;;;;;;5090870;28;19912;-75
2022/08/02 00:59:15;;;;;;;;;;;18.90;99.90;;;;;;5090967;28;19923;-76
2022/08/02 01:01:41;;;;;;;;;;;18.80;99.90;;;;;;5090990;28;19909;-76
2022/08/02 01:04:08;;;;;;;;;;;18.90;99.90;;;;;;5091188;28;19916;-76
2022/08/02 01:06:34;;;;;;;;;;;18.90;99.90;;;;;;5090720;28;19913;-76
2022/08/02 01:09:00;;;;;;;;;;;18.90;99.90;;;;;;5090872;28;20395;-76
2022/08/02 01:11:26;;;;;;;;;;;18.90;99.90;;;;;;5090872;28;19916;-76
2022/08/02 01:13:54;;;;;;;;;;;19.00;99.90;;;;;;5090665;28;19920;-75
2022/08/02 01:16:22;;;;;;;;;;;19.00;99.90;;;;;;5090510;28;20007;-75
2022/08/02 01:18:51;;;;;;;;;;;18.90;99.90;;;;;;5090836;28;19916;-75
2022/08/02 01:21:17;;;;;;;;;;;18.90;99.90;;;;;;5090683;28;19909;-75
2022/08/02 01:23:58;;;;;;;;;;;18.90;99.90;;;;;;5090712;28;19915;-75
2022/08/02 01:26:33;;;;;;;;;;;18.90;99.90;;;;;;5090250;28;20350;-76
2022/08/02 01:29:19;;;;;;;;;;;18.90;99.90;;;;;;5090527;28;19920;-75
2022/08/02 01:31:51;;;;;;;;;;;18.90;99.90;;;;;;5090502;28;19992;-76
2022/08/02 01:34:20;;;;;;;;;;;18.90;99.90;;;;;;5090475;28;19908;-76
2022/08/02 01:36:47;;;;;;;;;;;18.80;99.90;;;;;;5089905;28;19908;-75
2022/08/02 01:39:16;;;;;;;;;;;18.80;99.90;;;;;;5090139;28;19923;-75
2022/08/02 01:41:42;;;;;;;;;;;18.80;99.90;;;;;;5090301;28;19908;-75
2022/08/02 01:44:09;;;;;;;;;;;18.70;99.90;;;;;;5090618;28;20387;-75
2022/08/02 01:46:38;;;;;;;;;;;18.70;99.90;;;;;;5089893;28;19944;-76
2022/08/02 01:49:06;;;;;;;;;;;18.70;99.90;;;;;;5090117;28;19912;-75
2022/08/02 01:54:18;;;;;;;;;;;18.70;99.90;;;;;;5074954;28;19931;-76
2022/08/02 01:56:44;;;;;;;;;;;18.70;99.90;;;;;;5089704;28;20269;-75
2022/08/02 01:59:11;;;;;;;;;;;18.70;99.90;;;;;;5089874;28;20539;-76
2022/08/02 02:01:38;;;;;;;;;;;18.70;99.90;;;;;;5089961;28;20438;-76
2022/08/02 02:04:05;;;;;;;;;;;18.70;99.90;;;;;;5089876;28;20430;-76
2022/08/02 02:06:31;;;;;;;;;;;18.70;99.90;;;;;;5089651;28;19966;-76
2022/08/02 02:08:58;;;;;;;;;;;18.70;99.90;;;;;;5089604;28;20406;-75
2022/08/02 02:11:23;;;;;;;;;;;18.70;99.90;;;;;;5089808;28;19908;-76
2022/08/02 02:13:49;;;;;;;;;;;18.70;99.90;;;;;;5089668;28;19909;-76
2022/08/02 02:16:15;;;;;;;;;;;18.70;99.90;;;;;;5089399;28;19908;-75
2022/08/02 02:18:42;;;;;;;;;;;18.70;99.90;;;;;;5089526;28;19974;-76
2022/08/02 02:21:08;;;;;;;;;;;18.70;99.90;;;;;;5089477;28;19965;-76
2022/08/02 02:23:33;;;;;;;;;;;18.60;99.90;;;;;;5089438;28;20002;-76
2022/08/02 02:26:00;;;;;;;;;;;18.60;99.90;;;;;;5089338;28;20420;-75
2022/08/02 02:28:29;;;;;;;;;;;18.50;99.90;;;;;;5089280;28;19999;-75
2022/08/02 02:30:59;;;;;;;;;;;18.50;99.90;;;;;;5089598;28;19995;-75
2022/08/02 02:33:26;;;;;;;;;;;18.50;99.90;;;;;;5088645;28;19929;-74
2022/08/02 02:35:52;;;;;;;;;;;18.50;99.90;;;;;;5088566;28;19935;-76
2022/08/02 02:38:19;;;;;;;;;;;18.40;99.90;;;;;;5089124;28;19908;-76
2022/08/02 02:40:46;;;;;;;;;;;18.40;99.90;;;;;;5089020;28;19912;-75
2022/08/02 02:43:12;;;;;;;;;;;18.30;99.90;;;;;;5088919;28;19955;-76
2022/08/02 02:45:39;;;;;;;;;;;18.40;99.90;;;;;;5088718;28;19995;-76
2022/08/02 02:48:05;;;;;;;;;;;18.40;99.90;;;;;;5088156;28;19908;-76
2022/08/02 02:50:32;;;;;;;;;;;18.30;99.90;;;;;;5073382;28;19912;-76
2022/08/02 02:52:58;;;;;;;;;;;18.30;99.90;;;;;;5089221;28;19913;-76
2022/08/02 02:55:24;;;;;;;;;;;18.30;99.90;;;;;;5088852;28;19914;-76
2022/08/02 02:57:50;;;;;;;;;;;18.20;99.90;;;;;;5088455;28;19912;-76
2022/08/02 03:00:16;;;;;;;;;;;18.20;99.90;;;;;;5088746;28;20016;-76
2022/08/02 03:02:43;;;;;;;;;;;18.20;99.90;;;;;;5088745;28;19912;-75
2022/08/02 03:05:10;;;;;;;;;;;18.10;99.90;;;;;;5088661;28;20049;-76
2022/08/02 03:07:35;;;;;;;;;;;18.10;99.90;;;;;;5088542;28;19908;-76
2022/08/02 03:10:03;;;;;;;;;;;18.10;99.90;;;;;;5088464;28;20037;-75
2022/08/02 03:12:29;;;;;;;;;;;18.00;99.90;;;;;;5089287;28;20255;-76
2022/08/02 03:14:56;;;;;;;;;;;17.90;99.90;;;;;;5088467;28;19908;-75
2022/08/02 03:17:22;;;;;;;;;;;17.90;99.90;;;;;;5088197;28;19919;-76
2022/08/02 03:19:47;;;;;;;;;;;17.90;99.90;;;;;;5088316;28;19912;-75
2022/08/02 03:22:13;;;;;;;;;;;17.80;99.90;;;;;;5088480;28;20338;-75
2022/08/02 03:24:39;;;;;;;;;;;17.80;99.90;;;;;;5088392;28;19908;-75
2022/08/02 03:27:04;;;;;;;;;;;17.80;99.90;;;;;;5087973;28;19908;-75
2022/08/02 03:29:30;;;;;;;;;;;17.90;99.90;;;;;;5088246;28;20011;-76
2022/08/02 03:31:56;;;;;;;;;;;17.90;99.90;;;;;;5087960;28;19917;-75
2022/08/02 03:34:22;;;;;;;;;;;17.80;99.90;;;;;;5088240;28;20283;-75
2022/08/02 03:36:49;;;;;;;;;;;17.80;99.90;;;;;;5087800;28;19915;-75
2022/08/02 03:39:15;;;;;;;;;;;17.80;99.90;;;;;;5087966;28;19913;-75
2022/08/02 03:41:42;;;;;;;;;;;17.90;99.90;;;;;;5088067;28;19914;-75
2022/08/02 03:44:07;;;;;;;;;;;17.90;99.90;;;;;;5088079;28;19952;-76
2022/08/02 03:46:33;;;;;;;;;;;17.90;99.90;;;;;;5087620;28;19959;-75
2022/08/02 03:48:59;;;;;;;;;;;17.90;99.90;;;;;;5087839;28;19916;-75
2022/08/02 03:51:25;;;;;;;;;;;17.90;99.90;;;;;;5087958;28;19915;-75
2022/08/02 03:53:51;;;;;;;;;;;17.90;99.90;;;;;;5087873;28;20406;-76
2022/08/02 03:56:17;;;;;;;;;;;17.90;99.90;;;;;;5087563;28;19909;-75
2022/08/02 03:58:43;;;;;;;;;;;17.90;99.90;;;;;;5087755;28;19947;-76
2022/08/02 04:01:08;;;;;;;;;;;17.90;99.90;;;;;;5086949;28;20433;-76
2022/08/02 04:03:34;;;;;;;;;;;17.90;99.90;;;;;;5088168;28;19962;-75
2022/08/02 04:05:59;;;;;;;;;;;17.90;99.90;;;;;;5087611;28;20399;-76
2022/08/02 04:08:25;;;;;;;;;;;17.90;99.90;;;;;;5087591;28;19915;-75
2022/08/02 04:13:36;;;;;;;;;;;17.80;99.90;;;;;;5072670;28;20006;-76
2022/08/02 04:16:22;;;;;;;;;;;17.80;99.90;;;;;;5086242;28;20335;-75
2022/08/02 04:18:55;;;;;;;;;;;17.80;99.90;;;;;;5087881;28;19908;-76
2022/08/02 04:21:22;;;;;;;;;;;17.80;99.90;;;;;;5082594;28;20385;-76
2022/08/02 04:23:49;;;;;;;;;;;17.80;99.90;;;;;;5090891;28;20032;-76
2022/08/02 04:26:15;;;;;;;;;;;17.90;99.90;;;;;;5090659;28;19908;-76
2022/08/02 04:28:41;;;;;;;;;;;17.90;99.90;;;;;;5090845;28;19998;-75
2022/08/02 04:31:07;;;;;;;;;;;17.90;99.90;;;;;;5091038;28;19955;-75
2022/08/02 04:33:33;;;;;;;;;;;17.90;99.90;;;;;;5090714;28;20283;-76
2022/08/02 04:35:59;;;;;;;;;;;17.90;99.90;;;;;;5090619;28;19912;-75
2022/08/02 04:40:54;;;;;;;;;;;18.00;99.90;;;;;;5093150;28;19928;-78
2022/08/02 04:43:20;;;;;;;;;;;18.00;99.90;;;;;;5094476;28;19970;-79
2022/08/02 04:45:46;;;;;;;;;;;18.00;99.90;;;;;;5094348;28;19908;-78
2022/08/02 04:48:11;;;;;;;;;;;18.10;99.90;;;;;;5094953;28;19951;-78
2022/08/02 04:50:37;;;;;;;;;;;18.10;99.90;;;;;;5094859;28;19912;-78
2022/08/02 04:53:03;;;;;;;;;;;18.10;99.90;;;;;;5094567;28;20351;-78
2022/08/02 04:55:28;;;;;;;;;;;18.20;99.90;;;;;;5094629;28;19916;-78
2022/08/02 04:57:54;;;;;;;;;;;18.20;99.90;;;;;;5094168;28;19916;-79
2022/08/02 05:00:20;;;;;;;;;;;18.30;99.90;;;;;;5095063;28;19912;-79
2022/08/02 05:02:46;;;;;;;;;;;18.40;99.90;;;;;;5094898;28;19908;-78
2022/08/02 05:05:12;;;;;;;;;;;18.50;99.90;;;;;;5094171;28;19908;-78
2022/08/02 05:07:37;;;;;;;;;;;18.50;99.90;;;;;;5094015;28;19912;-77
2022/08/02 05:10:03;;;;;;;;;;;18.60;99.90;;;;;;5093644;28;19965;-78
2022/08/02 05:12:29;;;;;;;;;;;18.60;99.90;;;;;;5097264;28;19952;-78
2022/08/02 05:14:55;;;;;;;;;;;18.70;99.90;;;;;;5097828;28;19908;-78
2022/08/02 05:17:20;;;;;;;;;;;18.80;99.90;;;;;;5097937;28;19991;-78
2022/08/02 05:19:46;;;;;;;;;;;19.00;99.90;;;;;;5097510;28;19915;-78
2022/08/02 05:22:11;;;;;;;;;;;19.00;99.90;;;;;;5097971;28;19908;-78
2022/08/02 05:24:37;;;;;;;;;;;19.10;99.90;;;;;;5098008;28;19912;-79
2022/08/02 05:27:03;;;;;;;;;;;19.10;99.90;;;;;;5097711;28;19908;-78
2022/08/02 05:29:28;;;;;;;;;;;19.30;99.90;;;;;;5098700;28;20019;-79
2022/08/02 05:31:54;;;;;;;;;;;19.40;99.90;;;;;;5097731;28;19977;-78
2022/08/02 05:34:19;;;;;;;;;;;19.40;99.90;;;;;;5097985;28;19951;-78
2022/08/02 05:36:45;;;;;;;;;;;19.50;99.90;;;;;;5097175;28;19908;-78
2022/08/02 05:39:11;;;;;;;;;;;19.50;99.90;;;;;;5097489;28;19914;-78
2022/08/02 05:41:37;;;;;;;;;;;19.60;99.90;;;;;;5096944;28;19912;-77
2022/08/02 05:44:03;;;;;;;;;;;19.70;99.90;;;;;;5096803;28;19916;-77
2022/08/02 05:46:29;;;;;;;;;;;19.80;99.90;;;;;;5096439;28;19970;-78
2022/08/02 05:48:54;;;;;;;;;;;19.80;99.90;;;;;;5096749;28;19908;-78
2022/08/02 05:51:35;;;;;;;;;;;19.80;99.90;;;;;;5096525;28;20045;-78
2022/08/02 05:54:06;;;;;;;;;;;19.80;99.90;;;;;;5095944;28;19908;-77
2022/08/02 05:56:34;;;;;;;;;;;19.90;99.90;;;;;;5095743;28;20085;-78
2022/08/02 05:59:03;;;;;;;;;;;19.90;99.90;;;;;;5095567;28;19930;-78
2022/08/02 06:01:33;;;;;;;;;;;19.90;99.90;;;;;;5095098;28;19939;-79
2022/08/02 06:04:00;;;;;;;;;;;19.90;99.90;;;;;;5095873;28;20373;-78
2022/08/02 06:06:28;;;;;;;;;;;20.00;99.90;;;;;;5095495;28;19912;-78
2022/08/02 06:09:07;;;;;;;;;;;20.00;99.90;;;;;;5095319;28;19908;-77
2022/08/02 06:11:35;;;;;;;;;;;20.00;99.90;;;;;;5094873;28;19915;-77
2022/08/02 06:14:01;;;;;;;;;;;20.10;99.90;;;;;;5094753;28;19908;-78
2022/08/02 06:16:30;;;;;;;;;;;20.10;99.90;;;;;;5094998;28;20082;-78
2022/08/02 06:18:57;;;;;;;;;;;20.10;99.90;;;;;;5097090;28;19956;-80
2022/08/02 06:21:24;;;;;;;;;;;20.30;99.90;;;;;;5098031;28;20264;-78
2022/08/02 06:23:50;;;;;;;;;;;20.40;99.90;;;;;;5095550;28;19959;-80
2022/08/02 06:26:16;;;;;;;;;;;20.50;99.90;;;;;;5097801;28;19908;-78
2022/08/02 06:28:42;;;;;;;;;;;20.60;99.90;;;;;;5096200;28;19915;-78
2022/08/02 06:31:08;;;;;;;;;;;20.70;99.90;;;;;;5098061;28;19919;-78
2022/08/02 06:33:34;;;;;;;;;;;20.80;99.90;;;;;;5097230;28;20354;-78
2022/08/02 06:36:05;;;;;;;;;;;20.90;99.90;;;;;;5095016;28;19915;-79
2022/08/02 06:38:32;;;;;;;;;;;20.90;99.90;;;;;;5094761;28;19930;-79
2022/08/02 06:41:05;;;;;;;;;;;21.00;99.90;;;;;;5094728;28;20370;-79
2022/08/02 06:43:43;;;;;;;;;;;21.10;99.90;;;;;;5095032;28;19912;-78
2022/08/02 06:46:09;;;;;;;;;;;21.10;99.90;;;;;;5093550;28;19909;-78
2022/08/02 06:48:35;;;;;;;;;;;21.30;99.90;;;;;;5093837;28;20393;-78
2022/08/02 06:51:01;;;;;;;;;;;21.40;99.90;;;;;;5093944;28;19957;-78
2022/08/02 06:53:27;;;;;;;;;;;21.50;99.90;;;;;;5094380;28;19913;-78
2022/08/02 06:55:53;;;;;;;;;;;21.60;99.90;;;;;;5094215;28;19914;-78
2022/08/02 06:58:18;;;;;;;;;;;21.80;99.90;;;;;;5093823;28;20409;-77
2022/08/02 07:00:44;;;;;;;;;;;21.80;99.90;;;;;;5094069;28;19908;-78
2022/08/02 07:03:09;;;;;;;;;;;22.00;99.90;;;;;;5093298;28;20355;-78
2022/08/02 07:05:35;;;;;;;;;;;22.10;99.90;;;;;;5093611;28;19969;-79
2022/08/02 07:08:01;;;;;;;;;;;22.20;99.90;;;;;;5093851;28;19995;-79
2022/08/02 07:10:27;;;;;;;;;;;22.40;99.90;;;;;;5093983;28;19915;-77
2022/08/02 07:12:53;;;;;;;;;;;22.40;99.90;;;;;;5093491;28;19965;-78
2022/08/02 07:15:18;;;;;;;;;;;22.50;99.90;;;;;;5093123;28;19943;-78
2022/08/02 07:17:44;;;;;;;;;;;22.60;99.90;;;;;;5092692;28;20073;-77
2022/08/02 07:20:10;;;;;;;;;;;22.70;99.90;;;;;;5091931;28;19978;-78
2022/08/02 07:22:35;;;;;;;;;;;22.80;99.90;;;;;;5091918;28;19908;-78
2022/08/02 07:25:01;;;;;;;;;;;22.80;99.90;;;;;;5092155;28;19908;-78
2022/08/02 07:27:27;;;;;;;;;;;22.90;99.90;;;;;;5092079;28;19919;-78
2022/08/02 07:29:53;;;;;;;;;;;23.00;99.90;;;;;;5092182;28;19912;-78
2022/08/02 07:32:20;;;;;;;;;;;23.20;99.90;;;;;;5092196;28;19908;-78
2022/08/02 07:34:46;;;;;;;;;;;23.30;99.90;;;;;;5074845;28;20287;-79
2022/08/02 07:37:12;;;;;;;;;;;23.40;99.90;;;;;;5082670;28;19944;-77
2022/08/02 07:39:37;;;;;;;;;;;23.50;99.90;;;;;;5092750;28;19912;-77
2022/08/02 07:42:03;;;;;;;;;;;23.70;99.90;;;;;;5092228;28;19920;-77
2022/08/02 07:44:33;;;;;;;;;;;23.70;99.90;;;;;;5092179;28;19908;-77
2022/08/02 07:47:00;;;;;;;;;;;23.80;99.90;;;;;;5094414;28;20386;-77
2022/08/02 07:49:26;;;;;;;;;;;24.00;99.90;;;;;;5094024;28;19916;-79
2022/08/02 07:51:52;;;;;;;;;;;24.10;99.90;;;;;;5095892;28;19908;-78
2022/08/02 07:54:17;;;;;;;;;;;24.20;99.90;;;;;;5095757;28;19912;-78
2022/08/02 07:56:43;;;;;;;;;;;24.30;99.90;;;;;;5096808;28;20177;-78
2022/08/02 07:59:09;;;;;;;;;;;24.40;99.90;;;;;;5094890;28;19915;-78
2022/08/02 08:01:35;;;;;;;;;;;24.80;99.90;;;;;;5097175;28;20321;-79
2022/08/02 08:04:01;;;;;;;;;;;25.20;99.90;;;;;;5098196;28;20371;-78
2022/08/02 08:06:26;;;;;;;;;;;25.80;99.90;;;;;;5098753;28;19916;-79
2022/08/02 08:08:52;;;;;;;;;;;26.50;99.90;;;;;;5098060;28;20348;-78
2022/08/02 08:11:18;;;;;;;;;;;27.30;99.90;;;;;;5098697;28;19919;-79
2022/08/02 08:13:43;;;;;;;;;;;28.20;99.90;;;;;;5098250;28;19957;-78
2022/08/02 08:16:09;;;;;;;;;;;29.10;99.90;;;;;;5098157;28;19915;-79
2022/08/02 08:18:34;;;;;;;;;;;29.50;99.90;;;;;;5097998;28;20279;-78
2022/08/02 08:21:00;;;;;;;;;;;30.30;99.90;;;;;;5097629;28;19908;-79
2022/08/02 08:23:26;;;;;;;;;;;31.00;99.90;;;;;;5098606;28;20091;-79
2022/08/02 08:25:51;;;;;;;;;;;32.00;99.90;;;;;;5099283;28;19914;-79
2022/08/02 08:28:17;;;;;;;;;;;32.90;98.40;;;;;;5098079;28;19914;-79
2022/08/02 08:30:42;;;;;;;;;;;33.20;95.50;;;;;;5099023;28;19912;-78
2022/08/02 08:33:08;;;;;;;;;;;33.70;92.70;;;;;;5097917;28;19961;-79
2022/08/02 08:35:34;;;;;;;;;;;33.90;91.20;;;;;;5097664;28;19909;-79
2022/08/02 08:38:00;;;;;;;;;;;34.30;89.60;;;;;;5096560;28;19931;-79
2022/08/02 08:40:25;;;;;;;;;;;34.80;85.70;;;;;;5097040;28;19908;-78
2022/08/02 08:42:51;;;;;;;;;;;35.30;81.80;;;;;;5098819;28;19920;-79
2022/08/02 08:45:17;;;;;;;;;;;35.60;80.00;;;;;;5096305;28;19955;-80
2022/08/02 08:47:43;;;;;;;;;;;35.90;77.60;;;;;;5100536;28;19916;-80
2022/08/02 08:50:10;;;;;;;;;;;36.50;73.20;;;;;;5102393;28;19912;-79
2022/08/02 08:52:40;;;;;;;;;;;36.60;70.20;;;;;;5100269;28;19908;-79
2022/08/02 08:55:07;;;;;;;;;;;37.00;68.60;;;;;;5101677;28;19930;-79
2022/08/02 08:57:33;;;;;;;;;;;37.10;64.70;;;;;;5101077;28;19958;-79
2022/08/02 08:59:59;;;;;;;;;;;37.40;62.70;;;;;;5099843;28;20373;-78
2022/08/02 09:02:25;;;;;;;;;;;37.60;63.30;;;;;;5097736;28;19912;-78
2022/08/02 09:04:51;;;;;;;;;;;37.70;60.70;;;;;;5097469;28;20010;-79
2022/08/02 09:07:16;;;;;;;;;;;37.90;59.30;;;;;;5097468;28;19915;-79
2022/08/02 09:09:42;;;;;;;;;;;38.00;57.50;;;;;;5097988;28;19912;-79
2022/08/02 09:12:25;;;;;;;;;;;38.10;57.50;;;;;;5098330;28;19908;-79
2022/08/02 09:14:51;;;;;;;;;;;38.30;57.60;;;;;;5098627;28;19912;-79
2022/08/02 09:17:17;;;;;;;;;;;38.90;57.70;;;;;;5097903;28;19919;-79
2022/08/02 09:19:43;;;;;;;;;;;38.90;53.60;;;;;;5097596;28;19967;-79
2022/08/02 09:22:09;;;;;;;;;;;39.10;54.00;;;;;;5098126;28;19908;-79
2022/08/02 09:24:46;;;;;;;;;;;38.50;53.00;;;;;;5097681;28;19908;-79
2022/08/02 09:27:15;;;;;;;;;;;39.00;52.90;;;;;;5097659;28;20003;-80
2022/08/02 09:29:51;;;;;;;;;;;39.60;53.60;;;;;;5098456;28;19919;-79
2022/08/02 09:32:18;;;;;;;;;;;39.00;53.10;;;;;;5091271;28;20364;-79
2022/08/02 09:34:43;;;;;;;;;;;37.50;52.30;;;;;;5084321;28;19908;-78
2022/08/02 09:37:21;;;;;;;;;;;36.40;54.90;;;;;;5086567;28;20082;-79
2022/08/02 09:39:47;;;;;;;;;;;36.50;52.40;;;;;;5077028;28;19912;-80
2022/08/02 09:42:14;;;;;;;;;;;36.70;51.50;;;;;;5076064;28;19939;-79
2022/08/02 09:44:39;;;;;;;;;;;36.50;52.90;;;;;;5076388;28;19935;-78
2022/08/02 09:47:13;;;;;;;;;;;36.70;53.20;;;;;;5076255;28;19909;-78
2022/08/02 09:49:44;;;;;;;;;;;37.00;52.80;;;;;;5077473;28;19920;-80
2022/08/02 09:52:10;;;;;;;;;;;38.10;51.20;;;;;;5079147;28;19976;-79
2022/08/02 09:54:38;;;;;;;;;;;38.70;51.20;;;;;;5079258;28;20379;-79
2022/08/02 09:57:04;;;;;;;;;;;39.20;49.90;;;;;;5077130;28;20431;-78
2022/08/02 09:59:30;;;;;;;;;;;39.30;48.80;;;;;;5078074;28;19971;-79
2022/08/02 10:01:56;;;;;;;;;;;39.60;47.80;;;;;;5075947;28;19947;-79
2022/08/02 10:04:23;;;;;;;;;;;39.50;49.10;;;;;;5078805;28;20268;-79
2022/08/02 10:06:49;;;;;;;;;;;39.10;47.50;;;;;;5078397;28;19908;-79
2022/08/02 10:09:15;;;;;;;;;;;39.30;46.40;;;;;;5077055;28;19916;-79
2022/08/02 10:11:41;;;;;;;;;;;39.10;46.50;;;;;;5075931;28;20360;-79
2022/08/02 10:14:08;;;;;;;;;;;39.40;47.10;;;;;;5075455;28;19921;-79
2022/08/02 10:16:35;;;;;;;;;;;38.20;47.60;;;;;;5074651;28;19943;-78
2022/08/02 10:19:03;;;;;;;;;;;36.20;48.80;;;;;;5078983;28;20312;-78
2022/08/02 10:21:32;;;;;;;;;;;35.50;49.40;;;;;;5094293;28;19961;-78
2022/08/02 10:24:09;;;;;;;;;;;35.00;51.80;;;;;;5095116;28;19908;-78
2022/08/02 10:26:36;;;;;;;;;;;35.00;51.40;;;;;;5094599;28;20007;-78
2022/08/02 10:29:02;;;;;;;;;;;35.20;50.70;;;;;;5096493;28;19909;-78
2022/08/02 10:31:32;;;;;;;;;;;35.30;52.60;;;;;;5096295;28;19915;-79
2022/08/02 10:33:58;;;;;;;;;;;35.30;51.60;;;;;;5096757;28;19955;-79
2022/08/02 10:36:26;;;;;;;;;;;35.40;51.20;;;;;;5096729;28;19908;-78
2022/08/02 10:38:53;;;;;;;;;;;35.30;51.40;;;;;;5105535;22;19928;-85
2022/08/02 10:41:37;;;;;;;;;;;35.10;49.70;;;;;;5081846;28;19912;-86
2022/08/02 10:44:03;;;;;;;;;;;35.30;49.90;;;;;;5105347;28;19908;-85
2022/08/02 10:46:30;;;;;;;;;;;35.40;49.70;;;;;;5109496;28;19935;-84
2022/08/02 10:49:08;;;;;;;;;;;35.70;49.40;;;;;;5109896;28;19912;-86
2022/08/02 10:51:52;;;;;;;;;;;36.30;49.50;;;;;;5094196;28;19931;-85
2022/08/02 10:54:19;;;;;;;;;;;37.10;48.40;;;;;;5092944;28;20033;-86
2022/08/02 10:56:49;;;;;;;;;;;37.80;47.60;;;;;;5092591;28;19908;-86
2022/08/02 10:59:30;;;;;;;;;;;37.80;47.20;;;;;;5092709;28;19908;-86
2022/08/02 11:02:00;;;;;;;;;;;36.80;46.50;;;;;;5092602;28;19955;-85
2022/08/02 11:04:27;;;;;;;;;;;35.80;46.70;;;;;;5092729;28;20390;-85
2022/08/02 11:07:08;;;;;;;;;;;34.70;49.40;;;;;;5092083;28;19916;-84
2022/08/02 11:09:34;;;;;;;;;;;34.10;50.50;;;;;;5091119;28;19919;-85
2022/08/02 11:12:01;;;;;;;;;;;33.80;50.20;;;;;;5092775;28;19912;-86
2022/08/02 11:14:27;;;;;;;;;;;33.70;51.70;;;;;;5092624;28;19940;-85
2022/08/02 11:16:55;;;;;;;;;;;33.20;51.00;;;;;;5089238;28;19909;-85
2022/08/02 11:19:28;;;;;;;;;;;32.60;52.40;;;;;;5091783;28;19916;-86
2022/08/02 11:22:08;;;;;;;;;;;32.30;52.20;;;;;;5086709;28;19947;-86
2022/08/02 11:24:37;;;;;;;;;;;32.20;53.10;;;;;;5091734;28;19956;-85
2022/08/02 11:27:07;;;;;;;;;;;32.10;53.40;;;;;;5091467;28;19912;-86
2022/08/02 11:29:33;;;;;;;;;;;32.10;55.00;;;;;;5091974;28;19999;-86
2022/08/02 11:31:59;;;;;;;;;;;31.80;54.90;;;;;;5091563;28;19916;-85
2022/08/02 11:34:25;;;;;;;;;;;32.00;55.00;;;;;;5091676;28;19931;-86
2022/08/02 11:36:52;;;;;;;;;;;31.80;56.50;;;;;;5088590;28;19922;-88
2022/08/02 11:39:21;;;;;;;;;;;31.90;55.60;;;;;;5088817;28;19916;-86
2022/08/02 11:41:48;;;;;;;;;;;31.70;56.60;;;;;;5071262;28;19916;-86
2022/08/02 11:44:13;;;;;;;;;;;31.60;57.40;;;;;;5071437;28;19939;-86
2022/08/02 11:46:39;;;;;;;;;;;31.60;57.60;;;;;;5071521;28;19967;-86
2022/08/02 11:49:16;;;;;;;;;;;31.50;56.00;;;;;;5071578;28;20352;-86
2022/08/02 11:51:51;;;;;;;;;;;31.60;56.90;;;;;;5072052;28;19962;-86
2022/08/02 11:54:27;;;;;;;;;;;31.80;55.60;;;;;;5072727;28;20006;-86
2022/08/02 11:56:53;;;;;;;;;;;31.80;56.40;;;;;;5071776;28;19995;-86
2022/08/02 11:59:19;;;;;;;;;;;31.80;57.20;;;;;;5070782;28;20402;-86
2022/08/02 12:01:44;;;;;;;;;;;31.90;55.30;;;;;;5072204;28;19909;-87
2022/08/02 12:04:10;;;;;;;;;;;32.00;56.30;;;;;;5071010;28;19908;-86
2022/08/02 12:06:35;;;;;;;;;;;31.80;54.90;;;;;;5070487;28;19912;-87
2022/08/02 12:09:05;;;;;;;;;;;31.80;56.40;;;;;;5071278;28;19912;-85
2022/08/02 12:11:31;;;;;;;;;;;32.00;55.70;;;;;;5071376;28;19908;-86
2022/08/02 12:13:56;;;;;;;;;;;32.00;57.10;;;;;;5072443;28;19915;-86
2022/08/02 12:19:19;;;;;;;;;;;31.60;57.00;;;;;;5072337;28;19915;-86
2022/08/02 12:21:48;;;;;;;;;;;31.50;57.00;;;;;;5074310;28;19974;-85
2022/08/02 12:24:25;;;;;;;;;;;31.50;56.60;;;;;;5075096;28;19909;-86
2022/08/02 12:26:50;;;;;;;;;;;31.30;58.10;;;;;;5074696;28;19920;-85
2022/08/02 12:29:16;;;;;;;;;;;31.40;58.90;;;;;;5076337;28;19909;-86
2022/08/02 12:31:48;;;;;;;;;;;31.60;57.50;;;;;;5074744;28;19923;-85
2022/08/02 12:34:16;;;;;;;;;;;31.60;58.50;;;;;;5074938;28;19951;-86
2022/08/02 12:36:42;;;;;;;;;;;31.60;58.70;;;;;;5074307;28;19908;-86
2022/08/02 12:39:12;;;;;;;;;;;31.60;58.10;;;;;;5074581;28;20016;-86
2022/08/02 12:41:38;;;;;;;;;;;31.60;57.90;;;;;;5074909;28;20274;-86
2022/08/02 12:44:04;;;;;;;;;;;31.60;56.50;;;;;;5075254;28;20010;-85
2022/08/02 12:46:30;;;;;;;;;;;31.70;55.80;;;;;;5088546;28;19999;-86
2022/08/02 12:48:56;;;;;;;;;;;31.70;57.00;;;;;;5090074;28;19908;-86
2022/08/02 12:51:21;;;;;;;;;;;31.50;56.90;;;;;;5095360;28;19908;-85
2022/08/02 12:53:47;;;;;;;;;;;31.40;55.80;;;;;;5095392;28;20367;-86
2022/08/02 12:56:25;;;;;;;;;;;31.50;56.90;;;;;;5096650;28;20256;-87
2022/08/02 12:58:50;;;;;;;;;;;31.70;57.80;;;;;;5095253;28;19942;-85
2022/08/02 13:01:20;;;;;;;;;;;31.90;55.80;;;;;;5095122;28;19916;-87
2022/08/02 13:03:46;;;;;;;;;;;31.60;56.70;;;;;;5095267;28;19908;-86
2022/08/02 13:06:11;;;;;;;;;;;31.70;55.50;;;;;;5094937;28;19915;-86
2022/08/02 13:08:37;;;;;;;;;;;31.80;56.50;;;;;;5095089;28;20282;-86
2022/08/02 13:11:03;;;;;;;;;;;31.80;55.70;;;;;;5096249;28;20386;-86
2022/08/02 13:13:28;;;;;;;;;;;32.10;56.20;;;;;;5094886;28;19919;-86
2022/08/02 13:15:54;;;;;;;;;;;32.20;55.90;;;;;;5094707;28;20007;-86
2022/08/02 13:18:19;;;;;;;;;;;32.30;55.00;;;;;;5094928;28;19908;-86
2022/08/02 13:20:45;;;;;;;;;;;32.40;55.60;;;;;;5096180;28;19912;-86
2022/08/02 13:23:10;;;;;;;;;;;32.50;55.10;;;;;;5095141;28;20003;-86
2022/08/02 13:25:36;;;;;;;;;;;32.70;57.90;;;;;;5094638;28;19908;-86
2022/08/02 13:28:01;;;;;;;;;;;32.60;53.30;;;;;;5094497;28;19909;-86
2022/08/02 13:30:27;;;;;;;;;;;32.50;53.60;;;;;;5094739;28;19908;-86
2022/08/02 13:32:52;;;;;;;;;;;32.40;54.10;;;;;;5094303;28;19908;-86
2022/08/02 13:35:18;;;;;;;;;;;32.40;54.10;;;;;;5095616;28;19962;-86
2022/08/02 13:37:44;;;;;;;;;;;32.30;54.90;;;;;;5094466;28;19958;-86
2022/08/02 13:40:10;;;;;;;;;;;32.50;56.00;;;;;;5095570;28;19922;-86
2022/08/02 13:42:35;;;;;;;;;;;32.60;55.60;;;;;;5094243;28;19909;-86
2022/08/02 13:45:01;;;;;;;;;;;32.60;54.80;;;;;;5094379;28;19961;-88
2022/08/02 13:47:26;;;;;;;;;;;32.40;54.30;;;;;;5092318;28;19916;-89
2022/08/02 13:49:52;;;;;;;;;;;32.30;55.50;;;;;;5094880;28;19931;-88
2022/08/02 13:52:17;;;;;;;;;;;32.20;54.70;;;;;;5094305;28;19908;-88
2022/08/02 13:54:43;;;;;;;;;;;32.10;55.70;;;;;;5093787;28;19958;-89
2022/08/02 13:57:08;;;;;;;;;;;32.10;56.20;;;;;;5095431;28;19912;-89
2022/08/02 13:59:34;;;;;;;;;;;32.30;55.90;;;;;;5093827;28;19919;-89
2022/08/02 14:02:00;;;;;;;;;;;32.30;56.40;;;;;;5093378;28;20294;-89
2022/08/02 14:04:25;;;;;;;;;;;32.30;55.80;;;;;;5093735;28;19915;-89
2022/08/02 14:06:51;;;;;;;;;;;32.40;55.90;;;;;;5093494;28;19913;-88
2022/08/02 14:09:16;;;;;;;;;;;32.60;54.80;;;;;;5093602;28;19912;-88
2022/08/02 14:11:42;;;;;;;;;;;32.60;56.10;;;;;;5093682;28;20011;-87
2022/08/02 14:14:08;;;;;;;;;;;32.40;55.80;;;;;;5093927;28;19915;-88
2022/08/02 14:16:33;;;;;;;;;;;32.50;55.10;;;;;;5093058;28;19912;-88
2022/08/02 14:18:59;;;;;;;;;;;32.60;56.30;;;;;;5094955;28;19934;-88
2022/08/02 14:21:24;;;;;;;;;;;32.60;54.70;;;;;;5093097;28;20418;-91
2022/08/02 14:23:50;;;;;;;;;;;32.60;55.50;;;;;;5092148;28;19919;-89
2022/08/02 14:26:15;;;;;;;;;;;32.60;53.20;;;;;;5089348;28;19932;-87